EDMO

Oberpfaffenhofen Airport

Germany
METAR EDMO 161020Z 25011KT 9999 SCT011 BKN021 02/00 Q1007
Observed Flight Rules
Dec-16 @ 10:20 UTC (36 minutes ago) Marginal Visual Flight Rules
Wind Visibility Clouds
250° at 11 knots 10,000+ meters
  • Scattered at 1,100' AGL
  • Broken at 2,100' AGL
Temperatures Readings
Current 2°C / 36°F
Dewpoint 0°C / 32°F
Humidity 87%
Altimeter 29.73" Hg
Pressure 1007 hPa
Elevation 600
METAR EDMO 161020Z 25011KT 9999 SCT011 BKN021 02/00 Q1007
Observed Flight Rules
Dec-16 @ 10:20 UTC
(36 minutes ago)
MVFR
Wind Visibility
250° at 11 knots 10,000+ meters
Clouds
  • Scattered at 1,100' AGL
  • Broken at 2,100' AGL
Temperature Dewpoint
2°C / 36°F 0°C / 32°F
Humidity Altimeter Pressure
87% 29.73" Hg 1007 hPa